createdAt,value
2017-03-01T13:01:39.346Z,60
2017-03-01T13:02:52.075Z,60
2017-03-01T13:04:04.265Z,65
2017-03-01T13:05:17.566Z,60
2017-03-01T13:06:44.828Z,65
2017-03-01T13:07:58.132Z,65
2017-03-01T13:09:11.420Z,65
2017-03-01T13:10:24.731Z,65
2017-03-01T13:11:38.026Z,65
2017-03-01T13:12:51.374Z,70
2017-03-01T13:15:30.915Z,70
2017-03-01T13:16:58.469Z,70
2017-03-01T13:18:11.265Z,75
2017-03-01T13:19:24.789Z,70
2017-03-01T13:20:38.171Z,75
2017-03-01T13:22:05.461Z,75
2017-03-01T13:23:18.845Z,80
2017-03-01T13:24:32.245Z,80
2017-03-01T13:25:59.759Z,85
2017-03-01T13:27:26.779Z,85
2017-03-01T13:28:39.509Z,80
2017-03-01T13:29:52.795Z,70
2017-03-01T13:31:06.070Z,35
2017-03-01T13:32:18.797Z,20
2017-03-01T13:33:30.986Z,75
2017-03-01T13:34:58.259Z,65
2017-03-01T13:36:11.000Z,25
2017-03-01T13:37:24.555Z,75
2017-03-01T13:38:51.839Z,80
2017-03-01T13:40:04.566Z,80
2017-03-01T13:41:17.285Z,80
2017-03-01T13:42:30.792Z,40
2017-03-01T13:43:44.081Z,45
2017-03-01T13:44:56.805Z,85
2017-03-01T13:46:24.073Z,25
2017-03-01T13:47:37.357Z,25
2017-03-01T13:48:50.641Z,50
2017-03-01T13:50:02.794Z,60
2017-03-01T13:51:14.971Z,30
2017-03-01T13:52:27.324Z,85
2017-03-01T13:53:54.588Z,75
2017-03-01T13:56:34.555Z,85
2017-03-01T13:57:47.288Z,65
2017-03-01T13:59:00.028Z,80
2017-03-01T14:00:13.741Z,75
2017-03-01T14:02:54.230Z,85
2017-03-01T14:04:22.345Z,65
2017-03-01T14:05:38.206Z,80
2017-03-01T14:06:50.368Z,60
2017-03-01T14:08:03.087Z,75
2017-03-01T14:09:16.408Z,35
2017-03-01T14:11:56.582Z,75
2017-03-01T14:13:09.527Z,75
2017-03-01T14:14:22.844Z,80
2017-03-01T14:17:03.408Z,80
2017-03-01T14:18:16.701Z,30
2017-03-01T14:19:29.989Z,75
2017-03-01T14:20:43.270Z,85
2017-03-01T14:22:10.542Z,85
2017-03-01T14:23:24.032Z,85
2017-03-01T14:24:37.342Z,85
2017-03-01T14:25:50.649Z,80
2017-03-01T14:27:17.993Z,80
2017-03-01T14:28:45.311Z,80
2017-03-01T14:30:12.592Z,40
2017-03-01T14:31:39.871Z,85
2017-03-01T14:32:53.189Z,85
2017-03-01T14:34:06.500Z,25
2017-03-01T14:35:19.255Z,85
2017-03-01T14:36:31.992Z,85
2017-03-01T14:37:45.278Z,90
2017-03-01T14:38:58.776Z,90
2017-03-01T14:40:11.494Z,85
2017-03-01T14:41:38.196Z,85
2017-03-01T14:42:51.471Z,90
2017-03-01T14:44:04.985Z,85
2017-03-01T14:45:18.288Z,85
2017-03-01T14:46:31.577Z,55
2017-03-01T14:47:44.867Z,85
2017-03-01T14:48:58.159Z,25
2017-03-01T14:50:11.456Z,35
2017-03-01T14:51:24.813Z,45
2017-03-01T14:52:38.109Z,90
2017-03-01T14:53:51.405Z,90
2017-03-01T14:55:04.689Z,25
2017-03-01T14:56:17.990Z,25
2017-03-01T14:57:31.275Z,20
2017-03-01T14:58:44.574Z,20
2017-03-01T14:59:57.868Z,25
2017-03-01T15:01:11.379Z,70
2017-03-01T15:02:24.661Z,35
2017-03-01T15:03:37.952Z,25
2017-03-01T15:04:51.247Z,50
2017-03-01T15:06:04.730Z,35
2017-03-01T15:07:18.037Z,85
2017-03-01T15:08:31.314Z,85
2017-03-01T15:09:44.598Z,85
2017-03-01T15:10:57.326Z,90
2017-03-01T15:12:24.589Z,85
2017-03-01T15:13:37.883Z,80
2017-03-01T15:14:51.174Z,80
2017-03-01T15:16:03.899Z,85
2017-03-01T15:17:16.822Z,80
2017-03-01T15:18:30.141Z,75
2017-03-01T15:19:43.432Z,75
2017-03-01T15:20:55.575Z,25
2017-03-01T15:22:08.287Z,55
2017-03-01T15:23:21.566Z,25
2017-03-01T15:24:34.868Z,30
2017-03-01T15:26:02.140Z,70
2017-03-01T15:27:14.852Z,65
2017-03-01T15:28:27.583Z,30
2017-03-01T15:29:40.307Z,25
2017-03-01T15:30:52.474Z,25
2017-03-01T15:32:05.758Z,25
2017-03-01T15:33:19.052Z,25
2017-03-01T15:34:31.763Z,35
2017-03-01T15:35:44.470Z,60
2017-03-01T15:36:57.196Z,45
2017-03-01T15:38:10.787Z,60
2017-03-01T15:39:24.093Z,55
2017-03-01T15:40:37.370Z,55
2017-03-01T15:41:49.522Z,55
2017-03-01T15:43:02.231Z,60
2017-03-01T15:44:15.544Z,35
2017-03-01T15:45:28.268Z,25
2017-03-01T15:46:41.544Z,55
2017-03-01T15:47:54.851Z,50
2017-03-01T15:49:08.163Z,50
2017-03-01T15:50:21.485Z,20
2017-03-01T15:51:48.192Z,45
2017-03-01T15:53:01.490Z,45
2017-03-01T15:54:15.009Z,40
2017-03-01T15:55:27.738Z,40
2017-03-01T15:56:39.335Z,20
2017-03-01T15:57:52.056Z,45
2017-03-01T16:00:46.342Z,40
2017-03-01T16:01:59.059Z,40
2017-03-01T16:03:12.363Z,40
2017-03-01T16:04:24.522Z,35
2017-03-01T16:05:37.843Z,40
2017-03-01T16:06:51.136Z,40
2017-03-01T16:08:04.417Z,40
2017-03-01T16:09:31.688Z,40
2017-03-01T16:10:45.268Z,40
2017-03-01T16:11:58.548Z,20
2017-03-01T16:13:11.852Z,35
2017-03-01T16:14:39.123Z,25
2017-03-01T16:15:52.420Z,35
2017-03-01T16:17:05.158Z,20
2017-03-01T16:18:17.301Z,20
2017-03-01T16:19:30.023Z,30
2017-03-01T16:20:43.493Z,35
2017-03-01T16:21:56.959Z,35
2017-03-01T16:23:10.241Z,35
2017-03-01T16:24:23.517Z,35
2017-03-01T16:25:36.237Z,35
2017-03-01T16:26:49.161Z,35
2017-03-01T16:28:02.465Z,25
2017-03-01T16:29:15.759Z,25
2017-03-01T16:30:28.488Z,30
2017-03-01T16:31:42.000Z,35
2017-03-01T16:32:55.282Z,35
2017-03-01T16:34:08.578Z,35
2017-03-01T16:35:21.936Z,25
2017-03-01T16:36:34.663Z,35
2017-03-01T16:37:47.388Z,30
2017-03-01T16:39:14.655Z,35
2017-03-01T16:41:55.210Z,35
2017-03-01T16:43:08.814Z,35
2017-03-01T16:44:22.102Z,35
2017-03-01T16:45:34.261Z,35
2017-03-01T16:46:47.734Z,35
2017-03-01T16:48:15.090Z,30
2017-03-01T16:49:27.809Z,35
2017-03-01T16:50:41.107Z,30
2017-03-01T16:51:53.887Z,30
2017-03-01T16:53:07.419Z,30
2017-03-01T16:54:20.179Z,30
2017-03-01T16:57:14.235Z,30
2017-03-01T16:58:41.749Z,25
2017-03-01T17:00:09.041Z,20
2017-03-01T17:01:22.391Z,20
2017-03-01T17:02:35.697Z,20
2017-03-01T17:03:48.466Z,20
2017-03-01T17:05:01.855Z,30
2017-03-01T17:06:15.805Z,25
2017-03-01T17:07:29.370Z,25
2017-03-01T17:08:42.172Z,30
2017-03-01T17:12:50.129Z,25
2017-03-01T17:14:02.907Z,25
2017-03-01T17:15:16.238Z,30
2017-03-01T17:16:28.421Z,30
2017-03-01T17:17:41.762Z,30
2017-03-01T17:18:55.059Z,25
2017-03-01T17:20:08.433Z,25
2017-03-01T17:21:21.767Z,25
2017-03-01T17:22:35.093Z,30
2017-03-01T17:23:47.815Z,30
2017-03-01T17:25:01.155Z,25
2017-03-01T17:26:14.518Z,20
2017-03-01T17:27:27.869Z,30
2017-03-01T17:28:55.240Z,30
2017-03-01T17:30:08.629Z,20
2017-03-01T17:31:21.956Z,20
2017-03-01T17:32:34.684Z,20
2017-03-01T17:33:48.038Z,30
2017-03-01T17:35:02.195Z,20
2017-03-01T17:36:15.561Z,30
2017-03-01T17:37:27.808Z,30
2017-03-01T17:38:41.133Z,30
2017-03-01T17:39:54.493Z,35
2017-03-01T17:41:08.096Z,30
2017-03-01T17:42:20.867Z,25
2017-03-01T17:43:33.862Z,30
2017-03-01T17:46:13.958Z,30
2017-03-01T17:47:27.339Z,30
2017-03-01T17:48:40.679Z,30
2017-03-01T17:49:54.229Z,20
2017-03-01T17:51:07.576Z,20
2017-03-01T17:52:20.946Z,20
2017-03-01T17:53:34.313Z,30
2017-03-01T17:54:47.091Z,30
2017-03-01T17:56:00.401Z,30
2017-03-01T17:57:13.162Z,30
2017-03-01T17:58:26.518Z,30
2017-03-01T17:59:38.728Z,35
2017-03-01T18:00:52.062Z,35
2017-03-01T18:02:05.649Z,35
2017-03-01T18:03:18.969Z,30
2017-03-01T18:04:46.290Z,30
2017-03-01T18:05:59.609Z,25
2017-03-01T18:07:26.340Z,30
2017-03-01T18:08:39.119Z,30
2017-03-01T18:09:52.671Z,30
2017-03-01T18:11:06.024Z,15
2017-03-01T18:12:18.756Z,15
2017-03-01T18:13:32.101Z,15
2017-03-01T18:14:45.457Z,20
2017-03-01T18:15:58.806Z,20
2017-03-01T18:17:12.164Z,30
2017-03-01T18:18:25.695Z,30
2017-03-01T18:19:38.451Z,30
2017-03-01T18:20:51.223Z,30
2017-03-01T18:22:04.578Z,30
2017-03-01T18:23:17.916Z,30
2017-03-01T18:24:31.277Z,35
2017-03-01T18:25:44.628Z,20
2017-03-01T18:26:57.425Z,20
2017-03-01T18:28:11.005Z,20
2017-03-01T18:30:51.673Z,15
2017-03-01T18:32:05.005Z,10
2017-03-01T18:33:18.369Z,10
2017-03-01T18:34:30.586Z,10
2017-03-01T18:35:43.957Z,10
2017-03-01T18:36:57.296Z,10
2017-03-01T18:38:10.668Z,10
2017-03-01T18:39:24.010Z,10
2017-03-01T18:40:37.381Z,10
2017-03-01T18:41:50.716Z,10
2017-03-01T18:43:04.034Z,10
2017-03-01T18:44:16.780Z,10
2017-03-01T18:45:30.118Z,10
2017-03-01T18:46:56.898Z,10
2017-03-01T18:48:10.231Z,10
2017-03-01T18:49:23.578Z,10
2017-03-01T18:50:35.761Z,15
2017-03-01T18:53:16.392Z,15
2017-03-01T18:54:43.682Z,15
2017-03-01T18:55:56.428Z,15
2017-03-01T18:57:09.769Z,20
2017-03-01T18:58:23.109Z,15
2017-03-01T18:59:36.493Z,15
2017-03-01T19:00:49.828Z,15
2017-03-01T19:02:03.173Z,15
2017-03-01T19:03:16.515Z,15
2017-03-01T19:04:29.303Z,15
2017-03-01T19:05:42.637Z,15
2017-03-01T19:08:23.290Z,10
2017-03-01T19:09:36.059Z,10
2017-03-01T19:10:49.358Z,10
2017-03-01T19:12:02.089Z,15
2017-03-01T19:13:29.354Z,15
2017-03-01T19:14:42.704Z,20
2017-03-01T19:15:55.447Z,25
2017-03-01T19:17:08.749Z,30
2017-03-01T19:18:36.013Z,30
2017-03-01T19:19:49.626Z,30
2017-03-01T19:21:02.335Z,30
2017-03-01T19:22:15.066Z,30
2017-03-01T19:23:27.234Z,30
2017-03-01T19:24:40.533Z,30
2017-03-01T19:25:53.834Z,30
2017-03-01T19:27:05.996Z,30
2017-03-01T19:28:18.705Z,30
2017-03-01T19:29:32.004Z,30
2017-03-01T19:30:44.727Z,25
2017-03-01T19:31:58.021Z,20
2017-03-01T19:33:10.756Z,25
2017-03-01T19:34:24.056Z,25
2017-03-01T19:35:37.564Z,20
2017-03-01T19:36:50.852Z,20
2017-03-01T19:38:04.175Z,20
2017-03-01T19:39:16.909Z,25
2017-03-01T19:40:30.202Z,20
2017-03-01T19:41:43.699Z,30
2017-03-01T19:42:56.989Z,30
2017-03-01T19:44:10.275Z,30
2017-03-01T19:45:22.984Z,25
2017-03-01T19:46:36.286Z,25
2017-03-01T19:47:49.032Z,25
2017-03-01T19:49:02.325Z,20
2017-03-01T19:50:14.478Z,20
2017-03-01T19:51:41.728Z,20
2017-03-01T19:52:55.027Z,20
2017-03-01T19:54:07.758Z,20
2017-03-01T19:55:21.052Z,20
2017-03-01T19:56:33.784Z,20
2017-03-01T19:59:13.445Z,20
2017-03-01T20:00:26.165Z,20
2017-03-01T20:01:38.882Z,20
2017-03-01T20:02:51.899Z,20
2017-03-01T20:04:05.186Z,25
2017-03-01T20:05:18.468Z,25
2017-03-01T20:07:59.450Z,30
2017-03-01T20:09:12.734Z,30
2017-03-01T20:10:24.892Z,30
2017-03-01T20:11:38.189Z,30
2017-03-01T20:12:51.497Z,30
2017-03-01T20:14:04.803Z,30
2017-03-01T20:15:18.081Z,30
2017-03-01T20:16:30.808Z,30
2017-03-01T20:17:44.101Z,30
2017-03-01T20:18:57.025Z,25
2017-03-01T20:20:10.306Z,25
2017-03-01T20:21:23.580Z,25
2017-03-01T20:22:36.861Z,25
2017-03-01T20:23:49.056Z,25
2017-03-01T20:25:02.339Z,25
2017-03-01T20:26:15.092Z,25
2017-03-01T20:27:27.806Z,25
2017-03-01T20:28:41.122Z,15
2017-03-01T20:29:54.604Z,15
2017-03-01T20:31:07.888Z,10
2017-03-01T20:32:21.191Z,10
2017-03-01T20:33:48.445Z,5
2017-03-01T20:35:01.740Z,5
2017-03-01T20:36:14.462Z,5
2017-03-01T20:37:27.738Z,5
2017-03-01T20:38:41.033Z,5
2017-03-01T20:39:54.343Z,5
2017-03-01T20:41:21.645Z,10
2017-03-01T20:42:34.924Z,10
2017-03-01T20:44:01.612Z,5
2017-03-01T20:45:14.887Z,10
2017-03-01T20:46:28.158Z,15
2017-03-01T20:47:40.875Z,15
2017-03-01T20:48:54.156Z,15
2017-03-01T20:50:21.677Z,15
2017-03-01T20:51:34.404Z,15
2017-03-01T20:52:47.692Z,15
2017-03-01T20:54:00.407Z,10
2017-03-01T20:55:13.680Z,10
2017-03-01T20:56:26.954Z,5
2017-03-01T20:57:38.530Z,5
2017-03-01T21:00:18.527Z,5
2017-03-01T21:01:32.018Z,5
2017-03-01T21:02:44.755Z,5
2017-03-01T21:03:58.043Z,5
2017-03-01T21:05:11.311Z,0
2017-03-01T21:06:24.790Z,0
2017-03-01T21:07:37.501Z,0
2017-03-01T21:08:50.801Z,0
2017-03-01T21:10:03.505Z,0
2017-03-01T21:11:16.814Z,0
2017-03-01T21:12:29.534Z,0
2017-03-01T21:13:42.663Z,0
2017-03-01T21:14:55.958Z,0
2017-03-01T21:16:08.675Z,0
2017-03-01T21:17:22.173Z,0
2017-03-01T21:18:35.475Z,0
2017-03-01T21:19:48.766Z,0
2017-03-01T21:21:02.084Z,0
2017-03-01T21:22:14.237Z,0
2017-03-01T21:23:27.531Z,0
2017-03-01T21:24:40.253Z,0
2017-03-01T21:25:53.797Z,0
2017-03-01T21:27:07.094Z,0
2017-03-01T21:28:20.576Z,0
2017-03-01T21:29:34.061Z,0
2017-03-01T21:30:47.785Z,0
2017-03-01T21:32:01.064Z,0
2017-03-01T21:33:28.956Z,0
2017-03-01T21:34:41.671Z,0
2017-03-01T21:35:54.391Z,0
2017-03-01T21:37:07.666Z,0
2017-03-01T21:38:20.955Z,0
2017-03-01T21:39:34.482Z,0
2017-03-01T21:41:01.760Z,0
2017-03-01T21:42:15.059Z,0
2017-03-01T21:43:28.344Z,0
2017-03-01T21:44:41.263Z,0
2017-03-01T21:45:54.539Z,0
2017-03-01T21:47:21.841Z,0
2017-03-01T21:48:34.559Z,0
2017-03-01T21:49:47.840Z,0
2017-03-01T21:51:00.552Z,0
2017-03-01T21:52:13.832Z,0
2017-03-01T21:53:27.142Z,0
2017-03-01T21:54:39.503Z,0
2017-03-01T21:56:06.778Z,0
2017-03-01T21:57:20.091Z,0
2017-03-01T21:58:33.397Z,0
2017-03-01T22:00:00.093Z,0
2017-03-01T22:01:13.378Z,0
2017-03-01T22:02:40.663Z,0
2017-03-01T22:03:53.392Z,0
2017-03-01T22:05:06.904Z,0
2017-03-01T22:06:20.195Z,0
2017-03-01T22:07:33.697Z,0
2017-03-01T22:08:46.980Z,0
2017-03-01T22:09:59.700Z,0
2017-03-01T22:11:41.151Z,0
2017-03-01T22:12:54.491Z,0
2017-03-01T22:14:07.978Z,0
2017-03-01T22:15:21.558Z,0
2017-03-01T22:16:34.505Z,0
2017-03-01T22:17:48.055Z,0
2017-03-01T22:19:14.743Z,0
2017-03-01T22:20:28.036Z,0
2017-03-01T22:21:41.335Z,0
2017-03-01T22:23:08.033Z,0
2017-03-01T22:24:21.306Z,0
2017-03-01T22:25:34.628Z,0
2017-03-01T22:26:47.905Z,0
2017-03-01T22:28:01.189Z,0
2017-03-01T22:29:14.494Z,0
2017-03-01T22:30:27.212Z,0
2017-03-01T22:31:40.492Z,0
2017-03-01T22:32:53.783Z,0
2017-03-01T22:34:07.081Z,0
2017-03-01T22:35:19.796Z,0
2017-03-01T22:36:47.267Z,0
2017-03-01T22:38:00.561Z,0
2017-03-01T22:39:13.847Z,0
2017-03-01T22:40:27.147Z,0
2017-03-01T22:41:40.745Z,0
2017-03-01T22:42:53.477Z,0
2017-03-01T22:44:06.778Z,0
2017-03-01T22:45:20.109Z,0
2017-03-01T22:46:33.661Z,0
2017-03-01T22:47:46.956Z,0
2017-03-01T22:48:59.689Z,0
2017-03-01T22:50:12.981Z,0
2017-03-01T22:51:26.253Z,0
2017-03-01T22:52:39.730Z,0
2017-03-01T22:53:53.022Z,0
2017-03-01T22:55:06.332Z,0
2017-03-01T22:56:19.639Z,0
2017-03-01T22:57:32.361Z,0
2017-03-01T22:58:44.519Z,0
2017-03-01T22:59:56.680Z,0
2017-03-01T23:01:09.957Z,0
2017-03-01T23:02:23.239Z,0
2017-03-01T23:03:35.945Z,0
2017-03-01T23:04:49.241Z,0
2017-03-01T23:06:02.530Z,0
2017-03-01T23:07:15.828Z,0
2017-03-01T23:08:29.142Z,0
2017-03-01T23:09:42.443Z,0
2017-03-01T23:11:09.713Z,0
2017-03-01T23:12:23.001Z,0
2017-03-01T23:13:36.275Z,0
2017-03-01T23:14:49.566Z,0
2017-03-01T23:16:02.843Z,0
2017-03-01T23:17:16.138Z,0
2017-03-01T23:18:29.054Z,0
2017-03-01T23:19:42.336Z,0
2017-03-01T23:20:55.637Z,0
2017-03-01T23:22:22.889Z,0
2017-03-01T23:23:35.624Z,0
2017-03-01T23:24:48.916Z,0
2017-03-01T23:26:02.211Z,0
2017-03-01T23:27:15.490Z,0
2017-03-01T23:28:28.765Z,0
2017-03-01T23:29:41.537Z,0
2017-03-01T23:30:53.729Z,0
2017-03-01T23:32:07.535Z,0
2017-03-01T23:33:21.455Z,0
2017-03-01T23:34:35.733Z,0
2017-03-01T23:35:48.996Z,0
2017-03-01T23:37:02.875Z,0
2017-03-01T23:38:16.741Z,0
2017-03-01T23:39:30.627Z,0
2017-03-01T23:40:44.799Z,0
2017-03-01T23:41:58.689Z,0
2017-03-01T23:43:12.581Z,0
2017-03-01T23:44:26.441Z,0
2017-03-01T23:45:39.692Z,0
2017-03-01T23:46:52.718Z,0
2017-03-01T23:48:06.211Z,0
2017-03-01T23:49:19.671Z,0
2017-03-01T23:50:33.141Z,0
2017-03-01T23:51:46.844Z,0
2017-03-01T23:53:00.313Z,0
2017-03-01T23:54:13.803Z,0
2017-03-01T23:55:27.297Z,0
2017-03-01T23:56:54.922Z,0
2017-03-01T23:58:08.396Z,0
2017-03-01T23:59:21.861Z,0
